sensor_id;sensor_type;location;lat;lon;timestamp;pressure;altitude;pressure_sealevel;temperature;humidity
42169;BME280;27838;43.858;25.974;2023-06-26T00:02:11;100679.47;;;24.98;72.04
42169;BME280;27838;43.858;25.974;2023-06-26T00:04:38;100682.91;;;25.00;72.19
42169;BME280;27838;43.858;25.974;2023-06-26T00:07:04;100676.63;;;25.01;71.80
42169;BME280;27838;43.858;25.974;2023-06-26T00:09:32;100679.31;;;25.01;71.90
42169;BME280;27838;43.858;25.974;2023-06-26T00:11:59;100674.72;;;25.03;71.31
42169;BME280;27838;43.858;25.974;2023-06-26T00:14:26;100673.03;;;25.02;71.31
42169;BME280;27838;43.858;25.974;2023-06-26T00:16:53;100669.97;;;25.09;71.21
42169;BME280;27838;43.858;25.974;2023-06-26T00:19:19;100663.13;;;25.04;71.46
42169;BME280;27838;43.858;25.974;2023-06-26T00:21:46;100663.03;;;25.06;70.96
42169;BME280;27838;43.858;25.974;2023-06-26T00:24:16;100670.16;;;25.05;70.23
42169;BME280;27838;43.858;25.974;2023-06-26T00:26:45;100664.06;;;25.03;70.19
42169;BME280;27838;43.858;25.974;2023-06-26T00:29:12;100658.06;;;25.00;70.60
42169;BME280;27838;43.858;25.974;2023-06-26T00:31:39;100667.69;;;25.02;70.92
42169;BME280;27838;43.858;25.974;2023-06-26T00:34:06;100660.81;;;24.98;70.58
42169;BME280;27838;43.858;25.974;2023-06-26T00:36:32;100659.31;;;24.94;70.67
42169;BME280;27838;43.858;25.974;2023-06-26T00:38:59;100661.22;;;24.92;70.85
42169;BME280;27838;43.858;25.974;2023-06-26T00:41:25;100659.31;;;24.94;70.40
42169;BME280;27838;43.858;25.974;2023-06-26T00:43:52;100655.66;;;24.95;70.18
42169;BME280;27838;43.858;25.974;2023-06-26T00:46:18;100652.25;;;24.93;70.33
42169;BME280;27838;43.858;25.974;2023-06-26T00:48:46;100653.97;;;24.94;70.73
42169;BME280;27838;43.858;25.974;2023-06-26T00:51:15;100653.97;;;24.94;70.75
42169;BME280;27838;43.858;25.974;2023-06-26T00:53:42;100648.63;;;24.94;70.80
42169;BME280;27838;43.858;25.974;2023-06-26T00:56:09;100650.56;;;24.92;71.18
42169;BME280;27838;43.858;25.974;2023-06-26T00:58:36;100649.78;;;24.90;71.35
42169;BME280;27838;43.858;25.974;2023-06-26T01:01:03;100640.06;;;24.89;70.73
42169;BME280;27838;43.858;25.974;2023-06-26T01:03:31;100643.66;;;24.88;70.67
42169;BME280;27838;43.858;25.974;2023-06-26T01:05:58;100636.81;;;24.84;71.05
42169;BME280;27838;43.858;25.974;2023-06-26T01:08:26;100647.41;;;24.85;70.99
42169;BME280;27838;43.858;25.974;2023-06-26T01:10:53;100647.84;;;24.78;71.38
42169;BME280;27838;43.858;25.974;2023-06-26T01:13:20;100647.28;;;24.73;71.59
42169;BME280;27838;43.858;25.974;2023-06-26T01:15:48;100653.28;;;24.76;71.59
42169;BME280;27838;43.858;25.974;2023-06-26T01:18:14;100658.63;;;24.76;71.73
42169;BME280;27838;43.858;25.974;2023-06-26T01:20:42;100659.28;;;24.80;71.48
42169;BME280;27838;43.858;25.974;2023-06-26T01:26:23;100660.06;;;24.82;71.71
42169;BME280;27838;43.858;25.974;2023-06-26T01:28:42;100649.75;;;24.76;71.38
42169;BME280;27838;43.858;25.974;2023-06-26T01:31:10;100656.41;;;24.83;70.78
42169;BME280;27838;43.858;25.974;2023-06-26T01:33:38;100649.47;;;24.80;70.94
42169;BME280;27838;43.858;25.974;2023-06-26T01:36:05;100659.28;;;24.80;70.50
42169;BME280;27838;43.858;25.974;2023-06-26T01:38:32;100665.75;;;24.76;70.71
42169;BME280;27838;43.858;25.974;2023-06-26T01:41:00;100659.66;;;24.74;71.27
42169;BME280;27838;43.858;25.974;2023-06-26T01:46:18;100659.75;;;24.72;70.78
42169;BME280;27838;43.858;25.974;2023-06-26T01:49:25;100660.78;;;24.69;70.33
42169;BME280;27838;43.858;25.974;2023-06-26T01:55:28;100661.53;;;24.57;71.02
42169;BME280;27838;43.858;25.974;2023-06-26T01:57:35;100655.44;;;24.55;71.40
42169;BME280;27838;43.858;25.974;2023-06-26T02:00:02;100660.78;;;24.55;71.58
42169;BME280;27838;43.858;25.974;2023-06-26T02:02:31;100656.28;;;24.56;71.83
42169;BME280;27838;43.858;25.974;2023-06-26T02:04:58;100651.72;;;24.58;71.90
42169;BME280;27838;43.858;25.974;2023-06-26T02:07:24;100647.16;;;24.60;71.67
42169;BME280;27838;43.858;25.974;2023-06-26T02:09:51;100647.81;;;24.63;71.63
42169;BME280;27838;43.858;25.974;2023-06-26T02:12:17;100651.47;;;24.62;71.99
42169;BME280;27838;43.858;25.974;2023-06-26T02:14:44;100644.50;;;24.60;71.97
42169;BME280;27838;43.858;25.974;2023-06-26T02:17:10;100644.50;;;24.60;71.30
42169;BME280;27838;43.858;25.974;2023-06-26T02:19:37;100654.13;;;24.62;71.65
42169;BME280;27838;43.858;25.974;2023-06-26T02:22:13;100643.47;;;24.62;71.83
42169;BME280;27838;43.858;25.974;2023-06-26T02:24:41;100645.84;;;24.67;71.81
42169;BME280;27838;43.858;25.974;2023-06-26T02:27:08;100643.16;;;24.67;71.95
42169;BME280;27838;43.858;25.974;2023-06-26T02:29:34;100642.16;;;24.69;71.90
42169;BME280;27838;43.858;25.974;2023-06-26T02:32:01;100638.41;;;24.72;71.98
42169;BME280;27838;43.858;25.974;2023-06-26T02:34:28;100643.47;;;24.77;71.71
42169;BME280;27838;43.858;25.974;2023-06-26T02:36:55;100636.41;;;24.76;71.63
42169;BME280;27838;43.858;25.974;2023-06-26T02:39:24;100638.31;;;24.74;71.49
42169;BME280;27838;43.858;25.974;2023-06-26T02:41:50;100650.13;;;24.69;71.51
42169;BME280;27838;43.858;25.974;2023-06-26T02:44:17;100636.41;;;24.61;71.99
42169;BME280;27838;43.858;25.974;2023-06-26T02:46:43;100652.22;;;24.64;72.02
42169;BME280;27838;43.858;25.974;2023-06-26T02:49:10;100647.81;;;24.63;71.97
42169;BME280;27838;43.858;25.974;2023-06-26T02:51:37;100647.06;;;24.61;71.63
42169;BME280;27838;43.858;25.974;2023-06-26T02:54:04;100653.25;;;24.62;71.90
42169;BME280;27838;43.858;25.974;2023-06-26T02:56:30;100649.66;;;24.63;71.54
42169;BME280;27838;43.858;25.974;2023-06-26T02:58:57;100653.91;;;24.65;71.49
42169;BME280;27838;43.858;25.974;2023-06-26T03:01:23;100655.66;;;24.66;71.67
42169;BME280;27838;43.858;25.974;2023-06-26T03:03:50;100649.47;;;24.66;71.67
42169;BME280;27838;43.858;25.974;2023-06-26T03:06:17;100652.03;;;24.67;71.59
42169;BME280;27838;43.858;25.974;2023-06-26T03:08:44;100653.91;;;24.65;71.53
42169;BME280;27838;43.858;25.974;2023-06-26T03:11:10;100648.78;;;24.62;71.69
42169;BME280;27838;43.858;25.974;2023-06-26T03:13:37;100648.13;;;24.59;72.09
42169;BME280;27838;43.858;25.974;2023-06-26T03:16:04;100649.81;;;24.60;72.09
42169;BME280;27838;43.858;25.974;2023-06-26T03:18:31;100644.88;;;24.54;72.44
42169;BME280;27838;43.858;25.974;2023-06-26T03:20:58;100657.91;;;24.58;72.02
42169;BME280;27838;43.858;25.974;2023-06-26T03:23:24;100647.44;;;24.55;71.98
42169;BME280;27838;43.858;25.974;2023-06-26T03:25:51;100647.91;;;24.62;71.99
42169;BME280;27838;43.858;25.974;2023-06-26T03:28:18;100655.16;;;24.60;72.25
42169;BME280;27838;43.858;25.974;2023-06-26T03:30:44;100642.97;;;24.56;72.35
42169;BME280;27838;43.858;25.974;2023-06-26T03:33:11;100645.63;;;24.56;72.26
42169;BME280;27838;43.858;25.974;2023-06-26T03:35:37;100642.22;;;24.54;72.45
42169;BME280;27838;43.858;25.974;2023-06-26T03:38:04;100638.84;;;24.50;72.56
42169;BME280;27838;43.858;25.974;2023-06-26T03:40:31;100638.63;;;24.53;72.50
42169;BME280;27838;43.858;25.974;2023-06-26T03:42:57;100633.31;;;24.53;72.42
42169;BME280;27838;43.858;25.974;2023-06-26T03:45:24;100639.34;;;24.57;72.58
42169;BME280;27838;43.858;25.974;2023-06-26T03:47:50;100635.06;;;24.54;72.57
42169;BME280;27838;43.858;25.974;2023-06-26T03:50:17;100637.66;;;24.56;72.49
42169;BME280;27838;43.858;25.974;2023-06-26T03:52:44;100636.78;;;24.55;72.20
42169;BME280;27838;43.858;25.974;2023-06-26T03:55:11;100634.13;;;24.55;72.26
42169;BME280;27838;43.858;25.974;2023-06-26T03:57:37;100637.56;;;24.57;72.23
42169;BME280;27838;43.858;25.974;2023-06-26T04:00:04;100632.97;;;24.59;72.16
42169;BME280;27838;43.858;25.974;2023-06-26T04:02:34;100634.88;;;24.57;72.29
42169;BME280;27838;43.858;25.974;2023-06-26T04:05:01;100638.31;;;24.59;71.63
42169;BME280;27838;43.858;25.974;2023-06-26T04:07:28;100639.06;;;24.61;71.73
42169;BME280;27838;43.858;25.974;2023-06-26T04:09:56;100633.75;;;24.61;71.84
42169;BME280;27838;43.858;25.974;2023-06-26T04:12:24;100637.00;;;24.66;71.78
42169;BME280;27838;43.858;25.974;2023-06-26T04:14:51;100642.91;;;24.72;70.89
42169;BME280;27838;43.858;25.974;2023-06-26T04:17:17;100638.25;;;24.75;70.22
42169;BME280;27838;43.858;25.974;2023-06-26T04:19:44;100639.75;;;24.79;69.50
42169;BME280;27838;43.858;25.974;2023-06-26T04:22:10;100651.22;;;24.81;69.41
42169;BME280;27838;43.858;25.974;2023-06-26T04:24:37;100638.16;;;24.77;69.45
42169;BME280;27838;43.858;25.974;2023-06-26T04:27:03;100647.47;;;24.84;69.83
42169;BME280;27838;43.858;25.974;2023-06-26T04:29:31;100650.31;;;24.81;69.90
42169;BME280;27838;43.858;25.974;2023-06-26T04:31:57;100657.22;;;24.85;69.84
42169;BME280;27838;43.858;25.974;2023-06-26T04:34:24;100656.41;;;24.83;70.41
42169;BME280;27838;43.858;25.974;2023-06-26T04:36:51;100656.06;;;24.89;70.14
42169;BME280;27838;43.858;25.974;2023-06-26T04:39:18;100657.56;;;24.93;70.05
42169;BME280;27838;43.858;25.974;2023-06-26T04:41:44;100655.66;;;24.95;70.47
42169;BME280;27838;43.858;25.974;2023-06-26T04:44:11;100650.56;;;24.92;70.69
42169;BME280;27838;43.858;25.974;2023-06-26T04:46:38;100657.56;;;24.93;71.16
42169;BME280;27838;43.858;25.974;2023-06-26T04:49:07;100653.13;;;24.94;71.52
42169;BME280;27838;43.858;25.974;2023-06-26T04:51:34;100652.25;;;24.93;71.66
42169;BME280;27838;43.858;25.974;2023-06-26T04:54:09;100646.25;;;24.90;71.75
42169;BME280;27838;43.858;25.974;2023-06-26T04:56:36;100652.91;;;24.97;71.71
42169;BME280;27838;43.858;25.974;2023-06-26T04:59:05;100653.00;;;24.95;71.84
42169;BME280;27838;43.858;25.974;2023-06-26T05:01:32;100655.50;;;24.98;71.63
42169;BME280;27838;43.858;25.974;2023-06-26T05:03:59;100657.97;;;25.01;71.33
42169;BME280;27838;43.858;25.974;2023-06-26T05:06:25;100658.91;;;25.00;70.85
42169;BME280;27838;43.858;25.974;2023-06-26T05:08:52;100660.63;;;25.01;71.05
42169;BME280;27838;43.858;25.974;2023-06-26T05:11:18;100658.16;;;24.98;70.85
42169;BME280;27838;43.858;25.974;2023-06-26T05:13:45;100665.41;;;24.96;71.00
42169;BME280;27838;43.858;25.974;2023-06-26T05:16:11;100656.63;;;24.94;71.71
42169;BME280;27838;43.858;25.974;2023-06-26T05:18:38;100647.41;;;24.85;71.77
42169;BME280;27838;43.858;25.974;2023-06-26T05:21:04;100673.31;;;24.98;71.76
42169;BME280;27838;43.858;25.974;2023-06-26T05:23:32;100669.56;;;25.00;71.38
42169;BME280;27838;43.858;25.974;2023-06-26T05:26:03;100668.38;;;25.06;71.57
42169;BME280;27838;43.858;25.974;2023-06-26T05:28:30;100655.78;;;25.08;71.69
42169;BME280;27838;43.858;25.974;2023-06-26T05:30:58;100660.28;;;25.08;71.06
42169;BME280;27838;43.858;25.974;2023-06-26T05:33:26;100667.97;;;25.12;71.12
42169;BME280;27838;43.858;25.974;2023-06-26T05:35:53;100673.97;;;25.16;71.17
42169;BME280;27838;43.858;25.974;2023-06-26T05:38:20;100672.28;;;25.15;71.51
42169;BME280;27838;43.858;25.974;2023-06-26T05:40:47;100672.28;;;25.15;71.83
42169;BME280;27838;43.858;25.974;2023-06-26T05:43:14;100673.69;;;25.20;71.85
42169;BME280;27838;43.858;25.974;2023-06-26T05:45:41;100677.81;;;25.26;71.54
42169;BME280;27838;43.858;25.974;2023-06-26T05:48:07;100673.13;;;25.30;71.11
42169;BME280;27838;43.858;25.974;2023-06-26T05:50:34;100670.38;;;25.31;70.65
42169;BME280;27838;43.858;25.974;2023-06-26T05:53:01;100673.72;;;25.35;70.22
42169;BME280;27838;43.858;25.974;2023-06-26T05:55:28;100677.53;;;25.31;70.42
42169;BME280;27838;43.858;25.974;2023-06-26T05:57:57;100675.91;;;25.28;70.64
42169;BME280;27838;43.858;25.974;2023-06-26T06:00:25;100672.53;;;25.24;70.37
42169;BME280;27838;43.858;25.974;2023-06-26T06:02:52;100670.38;;;25.31;70.26
42169;BME280;27838;43.858;25.974;2023-06-26T06:05:21;100676.94;;;25.40;70.23
42169;BME280;27838;43.858;25.974;2023-06-26T06:07:48;100679.13;;;25.48;70.20
42169;BME280;27838;43.858;25.974;2023-06-26T06:10:15;100680.66;;;25.52;70.17
42169;BME280;27838;43.858;25.974;2023-06-26T06:12:41;100679.34;;;25.44;69.04
42169;BME280;27838;43.858;25.974;2023-06-26T06:15:08;100684.09;;;25.39;68.86
42169;BME280;27838;43.858;25.974;2023-06-26T06:17:34;100667.72;;;25.31;68.48
42169;BME280;27838;43.858;25.974;2023-06-26T06:20:02;100678.97;;;25.36;68.57
42169;BME280;27838;43.858;25.974;2023-06-26T06:22:29;100676.00;;;25.41;68.00
42169;BME280;27838;43.858;25.974;2023-06-26T06:24:56;100682.94;;;25.43;68.24
42169;BME280;27838;43.858;25.974;2023-06-26T06:27:22;100687.34;;;25.44;68.28
42169;BME280;27838;43.858;25.974;2023-06-26T06:29:49;100671.91;;;25.50;68.57
42169;BME280;27838;43.858;25.974;2023-06-26T06:32:15;100682.63;;;25.62;68.54
42169;BME280;27838;43.858;25.974;2023-06-26T06:34:42;100672.81;;;25.63;68.09
42169;BME280;27838;43.858;25.974;2023-06-26T06:37:08;100670.53;;;25.71;66.59
42169;BME280;27838;43.858;25.974;2023-06-26T06:39:35;100681.25;;;25.84;65.30
42169;BME280;27838;43.858;25.974;2023-06-26T06:42:01;100677.44;;;25.88;63.37
42169;BME280;27838;43.858;25.974;2023-06-26T06:44:28;100671.25;;;26.02;62.91
42169;BME280;27838;43.858;25.974;2023-06-26T06:46:55;100670.72;;;26.10;60.13
42169;BME280;27838;43.858;25.974;2023-06-26T06:49:22;100683.34;;;26.21;60.14
42169;BME280;27838;43.858;25.974;2023-06-26T06:51:49;100675.91;;;26.26;59.37
42169;BME280;27838;43.858;25.974;2023-06-26T06:54:16;100678.28;;;26.30;59.30
42169;BME280;27838;43.858;25.974;2023-06-26T06:56:43;100686.38;;;26.29;58.66
42169;BME280;27838;43.858;25.974;2023-06-26T06:59:09;100685.94;;;26.22;58.38
42169;BME280;27838;43.858;25.974;2023-06-26T07:01:36;100681.00;;;26.16;57.51
42169;BME280;27838;43.858;25.974;2023-06-26T07:04:03;100679.47;;;26.12;57.32
42169;BME280;27838;43.858;25.974;2023-06-26T07:06:30;100687.59;;;26.10;57.79
42169;BME280;27838;43.858;25.974;2023-06-26T07:08:56;100683.31;;;26.08;58.62
42169;BME280;27838;43.858;25.974;2023-06-26T07:11:23;100683.50;;;26.05;58.01
42169;BME280;27838;43.858;25.974;2023-06-26T07:13:49;100684.50;;;26.04;57.07
42169;BME280;27838;43.858;25.974;2023-06-26T07:16:16;100677.31;;;26.04;57.67
42169;BME280;27838;43.858;25.974;2023-06-26T07:18:43;100688.16;;;26.15;56.60
42169;BME280;27838;43.858;25.974;2023-06-26T07:21:10;100685.00;;;26.23;56.30
42169;BME280;27838;43.858;25.974;2023-06-26T07:23:36;100683.72;;;26.29;56.00
42169;BME280;27838;43.858;25.974;2023-06-26T07:26:03;100685.00;;;26.36;57.02
42169;BME280;27838;43.858;25.974;2023-06-26T07:28:29;100688.44;;;26.38;56.60
42169;BME280;27838;43.858;25.974;2023-06-26T07:30:56;100692.41;;;26.45;56.66
42169;BME280;27838;43.858;25.974;2023-06-26T07:33:22;100682.34;;;26.49;57.21
42169;BME280;27838;43.858;25.974;2023-06-26T07:35:49;100688.69;;;26.61;56.85
42169;BME280;27838;43.858;25.974;2023-06-26T07:38:16;100688.00;;;26.71;55.58
42169;BME280;27838;43.858;25.974;2023-06-26T07:40:42;100695.41;;;26.81;55.28
42169;BME280;27838;43.858;25.974;2023-06-26T07:43:09;100690.81;;;26.83;55.78
42169;BME280;27838;43.858;25.974;2023-06-26T07:45:35;100695.31;;;26.95;55.97
42169;BME280;27838;43.858;25.974;2023-06-26T07:48:02;100683.94;;;27.04;55.47
42169;BME280;27838;43.858;25.974;2023-06-26T07:50:29;100686.09;;;26.99;54.81
42169;BME280;27838;43.858;25.974;2023-06-26T07:52:55;100689.75;;;26.98;55.40
42169;BME280;27838;43.858;25.974;2023-06-26T07:55:22;100688.22;;;26.94;56.06
42169;BME280;27838;43.858;25.974;2023-06-26T07:57:48;100691.97;;;26.91;56.16
42169;BME280;27838;43.858;25.974;2023-06-26T08:00:17;100686.63;;;26.91;55.76
42169;BME280;27838;43.858;25.974;2023-06-26T08:02:44;100693.13;;;26.87;55.82
42169;BME280;27838;43.858;25.974;2023-06-26T08:05:10;100685.25;;;26.86;55.99
42169;BME280;27838;43.858;25.974;2023-06-26T08:07:36;100694.88;;;26.88;56.25
42169;BME280;27838;43.858;25.974;2023-06-26T08:10:03;100691.97;;;26.91;56.70
42169;BME280;27838;43.858;25.974;2023-06-26T08:12:30;100689.31;;;26.91;56.21
42169;BME280;27838;43.858;25.974;2023-06-26T08:14:57;100690.47;;;26.87;56.05
42169;BME280;27838;43.858;25.974;2023-06-26T08:17:23;100694.13;;;26.86;56.87
42169;BME280;27838;43.858;25.974;2023-06-26T08:19:50;100681.81;;;26.84;56.77
42169;BME280;27838;43.858;25.974;2023-06-26T08:22:16;100687.78;;;26.87;56.58
42169;BME280;27838;43.858;25.974;2023-06-26T08:24:43;100689.72;;;26.85;55.90
42169;BME280;27838;43.858;25.974;2023-06-26T08:27:09;100690.47;;;26.87;55.74
42169;BME280;27838;43.858;25.974;2023-06-26T08:29:36;100683.31;;;26.88;55.51
42169;BME280;27838;43.858;25.974;2023-06-26T08:32:03;100688.03;;;26.97;56.26
42169;BME280;27838;43.858;25.974;2023-06-26T08:34:29;100677.31;;;27.10;55.18
42169;BME280;27838;43.858;25.974;2023-06-26T08:36:56;100684.81;;;27.18;54.95
42169;BME280;27838;43.858;25.974;2023-06-26T08:39:22;100669.59;;;27.18;54.73
42169;BME280;27838;43.858;25.974;2023-06-26T08:41:49;100671.34;;;27.19;54.78
42169;BME280;27838;43.858;25.974;2023-06-26T08:44:16;100671.53;;;27.16;54.18
42169;BME280;27838;43.858;25.974;2023-06-26T08:46:43;100672.28;;;27.18;54.53
42169;BME280;27838;43.858;25.974;2023-06-26T08:49:17;100675.16;;;27.15;55.05
42169;BME280;27838;43.858;25.974;2023-06-26T08:51:52;100673.69;;;27.11;55.40
42169;BME280;27838;43.858;25.974;2023-06-26T08:54:22;100674.44;;;27.13;55.90
42169;BME280;27838;43.858;25.974;2023-06-26T08:56:54;100679.13;;;27.09;55.96
42169;BME280;27838;43.858;25.974;2023-06-26T08:59:21;100676.25;;;27.00;55.56
42169;BME280;27838;43.858;25.974;2023-06-26T09:01:48;100685.91;;;26.89;56.08
42169;BME280;27838;43.858;25.974;2023-06-26T09:04:14;100695.28;;;26.82;56.32
42169;BME280;27838;43.858;25.974;2023-06-26T09:06:41;100683.09;;;26.78;56.24
42169;BME280;27838;43.858;25.974;2023-06-26T09:09:07;100686.75;;;26.77;57.19
42169;BME280;27838;43.858;25.974;2023-06-26T09:11:35;100685.66;;;26.80;56.46
42169;BME280;27838;43.858;25.974;2023-06-26T09:14:02;100685.22;;;26.73;56.45
42169;BME280;27838;43.858;25.974;2023-06-26T09:16:30;100688.00;;;26.71;56.77
42169;BME280;27838;43.858;25.974;2023-06-26T09:18:57;100689.28;;;26.66;57.61
42169;BME280;27838;43.858;25.974;2023-06-26T09:21:24;100693.97;;;26.62;58.45
42169;BME280;27838;43.858;25.974;2023-06-26T09:23:52;100683.66;;;26.56;59.09
42169;BME280;27838;43.858;25.974;2023-06-26T09:26:21;100690.47;;;26.62;59.04
42169;BME280;27838;43.858;25.974;2023-06-26T09:28:48;100685.38;;;26.57;58.89
42169;BME280;27838;43.858;25.974;2023-06-26T09:31:16;100686.03;;;26.61;58.80
42169;BME280;27838;43.858;25.974;2023-06-26T09:33:46;100686.13;;;26.59;57.39
42169;BME280;27838;43.858;25.974;2023-06-26T09:36:19;100687.56;;;26.65;57.31
42169;BME280;27838;43.858;25.974;2023-06-26T09:38:47;100690.78;;;26.70;55.26
42169;BME280;27838;43.858;25.974;2023-06-26T09:41:17;100694.63;;;26.66;57.07
42169;BME280;27838;43.858;25.974;2023-06-26T09:43:51;100689.47;;;26.63;58.38
42169;BME280;27838;43.858;25.974;2023-06-26T09:46:24;100685.97;;;26.62;59.51
42169;BME280;27838;43.858;25.974;2023-06-26T09:49:05;100675.16;;;26.64;59.77
42169;BME280;27838;43.858;25.974;2023-06-26T09:51:33;100681.47;;;26.63;59.15
42169;BME280;27838;43.858;25.974;2023-06-26T09:54:00;100680.69;;;26.61;59.58
42169;BME280;27838;43.858;25.974;2023-06-26T09:56:28;100689.28;;;26.66;59.44
42169;BME280;27838;43.858;25.974;2023-06-26T09:58:56;100688.00;;;26.71;58.38
42169;BME280;27838;43.858;25.974;2023-06-26T10:01:24;100681.78;;;26.71;58.57
42169;BME280;27838;43.858;25.974;2023-06-26T10:03:51;100685.00;;;26.76;58.92
42169;BME280;27838;43.858;25.974;2023-06-26T10:06:47;100683.94;;;26.79;59.39
42169;BME280;27838;43.858;25.974;2023-06-26T10:09:19;100682.44;;;26.74;60.64
42169;BME280;27838;43.858;25.974;2023-06-26T10:11:50;100681.91;;;26.69;61.43
42169;BME280;27838;43.858;25.974;2023-06-26T10:14:19;100668.28;;;26.60;62.57
42169;BME280;27838;43.858;25.974;2023-06-26T10:16:48;100676.13;;;26.63;63.39
42169;BME280;27838;43.858;25.974;2023-06-26T10:19:19;100676.84;;;26.65;65.02
42169;BME280;27838;43.858;25.974;2023-06-26T10:21:52;100682.44;;;26.62;66.22
42169;BME280;27838;43.858;25.974;2023-06-26T10:24:21;100675.13;;;26.51;64.99
42169;BME280;27838;43.858;25.974;2023-06-26T10:26:50;100671.91;;;26.46;65.73
42169;BME280;27838;43.858;25.974;2023-06-26T10:29:20;100643.84;;;26.26;64.01
42169;BME280;27838;43.858;25.974;2023-06-26T10:31:51;100672.31;;;26.40;64.35
42169;BME280;27838;43.858;25.974;2023-06-26T10:34:19;100664.00;;;26.44;65.68
42169;BME280;27838;43.858;25.974;2023-06-26T10:36:46;100669.88;;;26.49;65.53
42169;BME280;27838;43.858;25.974;2023-06-26T10:39:17;100661.84;;;26.49;63.14
42169;BME280;27838;43.858;25.974;2023-06-26T10:41:43;100662.72;;;26.50;64.23
42169;BME280;27838;43.858;25.974;2023-06-26T10:44:16;100668.69;;;26.53;64.15
42169;BME280;27838;43.858;25.974;2023-06-26T10:49:18;100666.97;;;26.52;63.37
42169;BME280;27838;43.858;25.974;2023-06-26T10:51:50;100668.16;;;26.48;64.35
42169;BME280;27838;43.858;25.974;2023-06-26T10:54:18;100665.69;;;26.45;65.61
42169;BME280;27838;43.858;25.974;2023-06-26T10:56:50;100663.44;;;26.39;65.89
42169;BME280;27838;43.858;25.974;2023-06-26T10:59:19;100660.03;;;26.37;65.66
42169;BME280;27838;43.858;25.974;2023-06-26T11:02:04;100669.41;;;26.30;65.16
42169;BME280;27838;43.858;25.974;2023-06-26T11:04:37;100665.41;;;26.23;65.39
42169;BME280;27838;43.858;25.974;2023-06-26T11:07:15;100665.84;;;26.16;65.54
42169;BME280;27838;43.858;25.974;2023-06-26T11:10:02;100663.25;;;26.15;64.97
42169;BME280;27838;43.858;25.974;2023-06-26T11:12:40;100663.44;;;26.12;65.14
42169;BME280;27838;43.858;25.974;2023-06-26T11:15:13;100670.44;;;26.14;65.26
42169;BME280;27838;43.858;25.974;2023-06-26T11:17:40;100665.63;;;26.19;65.77
42169;BME280;27838;43.858;25.974;2023-06-26T11:20:10;100660.75;;;26.39;66.89
42169;BME280;27838;43.858;25.974;2023-06-26T11:22:39;100666.78;;;26.55;66.17
42169;BME280;27838;43.858;25.974;2023-06-26T11:25:07;100660.50;;;26.69;66.32
42169;BME280;27838;43.858;25.974;2023-06-26T11:30:07;100664.06;;;26.96;65.32
42169;BME280;27838;43.858;25.974;2023-06-26T11:32:34;100658.59;;;27.10;63.17
42169;BME280;27838;43.858;25.974;2023-06-26T11:35:01;100647.47;;;27.16;60.23
42169;BME280;27838;43.858;25.974;2023-06-26T11:37:29;100652.50;;;27.34;59.43
42169;BME280;27838;43.858;25.974;2023-06-26T11:39:57;100646.94;;;27.37;58.75
42169;BME280;27838;43.858;25.974;2023-06-26T11:42:23;100655.69;;;27.39;59.27
42169;BME280;27838;43.858;25.974;2023-06-26T11:44:52;100651.28;;;27.50;57.82
42169;BME280;27838;43.858;25.974;2023-06-26T11:47:20;100647.25;;;27.69;56.85
42169;BME280;27838;43.858;25.974;2023-06-26T11:49:49;100648.69;;;27.86;57.11
42169;BME280;27838;43.858;25.974;2023-06-26T11:52:16;100644.91;;;28.01;55.39
42169;BME280;27838;43.858;25.974;2023-06-26T11:54:43;100643.31;;;27.99;55.16
42169;BME280;27838;43.858;25.974;2023-06-26T11:57:14;100647.59;;;28.01;54.74
42169;BME280;27838;43.858;25.974;2023-06-26T11:59:44;100642.75;;;28.06;55.07
42169;BME280;27838;43.858;25.974;2023-06-26T12:02:13;100638.97;;;28.09;55.33
42169;BME280;27838;43.858;25.974;2023-06-26T12:04:43;100628.88;;;28.13;54.99
42169;BME280;27838;43.858;25.974;2023-06-26T12:07:11;100637.66;;;28.15;54.47
42169;BME280;27838;43.858;25.974;2023-06-26T12:09:43;100623.69;;;28.22;54.00
42169;BME280;27838;43.858;25.974;2023-06-26T12:12:13;100616.63;;;28.21;52.16
42169;BME280;27838;43.858;25.974;2023-06-26T12:14:41;100605.28;;;28.18;52.83
42169;BME280;27838;43.858;25.974;2023-06-26T12:17:11;100610.53;;;28.19;52.19
42169;BME280;27838;43.858;25.974;2023-06-26T12:19:39;100605.06;;;28.21;52.20
42169;BME280;27838;43.858;25.974;2023-06-26T12:22:07;100602.66;;;28.29;52.00
42169;BME280;27838;43.858;25.974;2023-06-26T12:24:38;100608.38;;;28.36;52.11
42169;BME280;27838;43.858;25.974;2023-06-26T12:27:13;100610.69;;;28.29;51.17
42169;BME280;27838;43.858;25.974;2023-06-26T12:29:52;100613.81;;;28.23;51.63
42169;BME280;27838;43.858;25.974;2023-06-26T12:32:21;100608.06;;;28.16;52.24
42169;BME280;27838;43.858;25.974;2023-06-26T12:34:49;100602.72;;;28.16;52.53
42169;BME280;27838;43.858;25.974;2023-06-26T12:37:16;100613.72;;;28.24;52.68
42169;BME280;27838;43.858;25.974;2023-06-26T12:39:53;100612.16;;;28.33;52.38
42169;BME280;27838;43.858;25.974;2023-06-26T12:42:27;100604.44;;;28.29;50.87
42169;BME280;27838;43.858;25.974;2023-06-26T12:44:54;100599.91;;;28.18;51.33
42169;BME280;27838;43.858;25.974;2023-06-26T12:47:26;100607.00;;;28.19;52.23
42169;BME280;27838;43.858;25.974;2023-06-26T12:49:53;100614.53;;;28.14;52.52
42169;BME280;27838;43.858;25.974;2023-06-26T12:52:20;100602.59;;;28.18;52.73
42169;BME280;27838;43.858;25.974;2023-06-26T12:54:52;100610.53;;;28.31;52.57
42169;BME280;27838;43.858;25.974;2023-06-26T12:57:19;100615.66;;;28.34;52.68
42169;BME280;27838;43.858;25.974;2023-06-26T12:59:45;100612.38;;;28.30;52.95